Palchem 1 — 9HA2097 — position and weather

sailwx.info

Track history (hours):
 
Tides and Currents Weather Stations Pressure Air Temp Water Temp Dewpoint Dewpoint Depression Visibility Wind Speed Wind Dir Waves Ship Positions

Palchem 1

Last reported at 2014-Nov-20 14:31 UTC. Time now 2014-Nov-21 02:34 UTC.
Position N 37°53' E 025°47'.

Length 143 m; draft 8.7 m.

Type: Ship (hazmat cat B). MMSI: 249955000.

Date/timePositionNaut miles runAvg speedWind from/ knotsBaromVisibWave heightAir tempDewpointWater temp
2014-Nov-20 14:31N 37°53' E 025°47'9 9.5
2014-Nov-20 13:33N 37°43' E 025°48'10 9.7
2014-Nov-20 12:30N 37°33' E 025°49'9 9.7
2014-Nov-20 11:33N 37°24' E 025°52'1010.1
2014-Nov-20 10:33N 37°16' E 025°58'1110.5
2014-Nov-20 09:33N 37°07' E 026°06'1110.9
2014-Nov-20 08:31N 36°57' E 026°13'1010.7
2014-Nov-20 07:33N 36°49' E 026°21'1111.0
2014-Nov-20 06:34N 36°42' E 026°31'1211.7
2014-Nov-20 05:33N 36°33' E 026°41'1312.8
2014-Nov-20 04:33N 36°23' E 026°51'1212.0
2014-Nov-20 03:31N 36°14' E 027°01'3811.8
2014-Nov-20 00:17N 35°46' E 027°33'1211.6
2014-Nov-19 23:14N 35°37' E 027°43'  
Track history (hours):
 
Tides and Currents Weather Stations Pressure Air Temp Water Temp Dewpoint Dewpoint Depression Visibility Wind Speed Wind Dir Waves Ship Positions

Palchem 1

Last reported at 2014-Nov-20 14:31 UTC. Time now 2014-Nov-21 02:34 UTC.
Position N 37°53' E 025°47'.

Length 143 m; draft 8.7 m.

Type: Ship (hazmat cat B). MMSI: 249955000.

Date/timePositionNaut miles runAvg speedWind from/ knotsBaromVisibWave heightAir tempDewpointWater temp
2014-Nov-20 14:31N 37°53' E 025°47'9 9.5
2014-Nov-20 13:33N 37°43' E 025°48'10 9.7
2014-Nov-20 12:30N 37°33' E 025°49'9 9.7
2014-Nov-20 11:33N 37°24' E 025°52'1010.1
2014-Nov-20 10:33N 37°16' E 025°58'1110.5
2014-Nov-20 09:33N 37°07' E 026°06'1110.9
2014-Nov-20 08:31N 36°57' E 026°13'1010.7
2014-Nov-20 07:33N 36°49' E 026°21'1111.0
2014-Nov-20 06:34N 36°42' E 026°31'1211.7
2014-Nov-20 05:33N 36°33' E 026°41'1312.8
2014-Nov-20 04:33N 36°23' E 026°51'1212.0
2014-Nov-20 03:31N 36°14' E 027°01'3811.8
2014-Nov-20 00:17N 35°46' E 027°33'1211.6
2014-Nov-19 23:14N 35°37' E 027°43'  

Dump ship's entire track history